createdAt,value
2023-05-09T00:00:33.989Z,101564.01
2023-05-09T00:03:16.504Z,101556.89
2023-05-09T00:05:47.396Z,101555.16
2023-05-09T00:08:18.300Z,101552.52
2023-05-09T00:10:50.267Z,101553.77
2023-05-09T00:13:21.093Z,101552.91
2023-05-09T00:15:54.080Z,101555.27
2023-05-09T00:18:24.684Z,101554.81
2023-05-09T00:20:55.630Z,101552.75
2023-05-09T00:23:26.366Z,101553.22
2023-05-09T00:25:57.062Z,101554.24
2023-05-09T00:28:27.873Z,101558.64
2023-05-09T00:30:58.629Z,101555.98
2023-05-09T00:33:29.494Z,101553.30
2023-05-09T00:36:00.264Z,101552.58
2023-05-09T00:38:44.392Z,101552.27
2023-05-09T00:41:15.182Z,101545.96
2023-05-09T00:43:46.001Z,101540.74
2023-05-09T00:46:16.685Z,101546.89
2023-05-09T00:48:47.525Z,101548.41
2023-05-09T00:51:18.350Z,101552.26
2023-05-09T00:53:48.987Z,101556.27
2023-05-09T00:56:19.563Z,101560.38
2023-05-09T00:58:50.132Z,101558.36
2023-05-09T01:01:21.199Z,101559.58
2023-05-09T01:03:52.045Z,101557.38
2023-05-09T01:06:24.216Z,101562.88
2023-05-09T01:09:03.422Z,101558.07
2023-05-09T01:11:36.237Z,101559.55
2023-05-09T01:14:10.188Z,101555.30
2023-05-09T01:16:42.645Z,101558.09
2023-05-09T01:19:18.446Z,101557.02
2023-05-09T01:21:49.130Z,101553.84
2023-05-09T01:24:33.551Z,101554.48
2023-05-09T01:27:11.715Z,101554.79
2023-05-09T01:29:43.956Z,101554.10
2023-05-09T01:32:16.061Z,101552.67
2023-05-09T01:34:47.212Z,101553.66
2023-05-09T01:37:17.948Z,101554.52
2023-05-09T01:39:50.484Z,101558.48
2023-05-09T01:42:21.985Z,101560.95
2023-05-09T01:44:52.713Z,101561.06
2023-05-09T01:47:23.542Z,101561.86
2023-05-09T01:49:54.246Z,101560.14
2023-05-09T01:52:25.770Z,101553.93
2023-05-09T01:54:56.383Z,101554.27
2023-05-09T01:57:26.909Z,101549.42
2023-05-09T01:59:58.548Z,101550.23
2023-05-09T02:02:29.441Z,101545.03
2023-05-09T02:15:15.500Z,101550.15
2023-05-09T02:17:46.734Z,101552.89
2023-05-09T02:20:17.536Z,101551.94
2023-05-09T02:22:48.191Z,101555.45
2023-05-09T02:25:18.946Z,101556.20
2023-05-09T02:27:49.922Z,101556.89
2023-05-09T02:30:23.545Z,101557.30
2023-05-09T02:32:55.069Z,101554.82
2023-05-09T02:35:25.800Z,101554.36
2023-05-09T02:37:56.766Z,101553.92
2023-05-09T02:40:28.005Z,101555.20
2023-05-09T02:42:58.817Z,101555.61
2023-05-09T02:45:29.557Z,101558.47
2023-05-09T02:48:00.330Z,101558.48
2023-05-09T02:50:31.344Z,101561.87
2023-05-09T02:53:02.064Z,101562.43
2023-05-09T02:55:33.118Z,101563.23
2023-05-09T02:58:13.244Z,101563.48
2023-05-09T03:00:45.324Z,101564.84
2023-05-09T03:03:17.977Z,101565.31
2023-05-09T03:05:49.081Z,101571.71
2023-05-09T03:08:19.801Z,101568.36
2023-05-09T03:10:51.262Z,101569.24
2023-05-09T03:13:22.132Z,101569.25
2023-05-09T03:15:53.053Z,101575.44
2023-05-09T03:18:23.726Z,101572.65
2023-05-09T03:20:54.272Z,101579.40
2023-05-09T03:23:24.887Z,101578.52
2023-05-09T03:25:55.506Z,101584.09
2023-05-09T03:28:26.108Z,101589.42
2023-05-09T03:30:56.884Z,101594.08
2023-05-09T03:33:27.586Z,101594.83
2023-05-09T03:36:00.666Z,101594.80
2023-05-09T03:38:31.326Z,101598.25
2023-05-09T03:41:02.029Z,101598.83
2023-05-09T03:43:32.591Z,101597.83
2023-05-09T03:46:03.160Z,101604.61
2023-05-09T03:48:33.947Z,101603.91
2023-05-09T03:51:04.824Z,101607.95
2023-05-09T03:53:35.503Z,101610.57
2023-05-09T03:56:06.631Z,101610.27
2023-05-09T03:58:37.224Z,101610.27
2023-05-09T04:01:07.720Z,101610.52
2023-05-09T04:03:38.724Z,101613.45
2023-05-09T04:06:11.190Z,101614.04
2023-05-09T04:08:41.854Z,101612.46
2023-05-09T04:11:12.441Z,101615.05
2023-05-09T04:13:43.044Z,101617.89
2023-05-09T04:16:16.286Z,101621.64
2023-05-09T04:18:56.264Z,101624.52
2023-05-09T04:21:27.014Z,101631.98
2023-05-09T04:23:58.541Z,101632.88
2023-05-09T04:26:30.035Z,101638.03
2023-05-09T04:29:00.726Z,101639.03
2023-05-09T04:31:31.578Z,101636.95
2023-05-09T04:34:06.649Z,101639.35
2023-05-09T04:36:42.627Z,101637.26
2023-05-09T04:39:13.323Z,101634.05
2023-05-09T04:41:46.683Z,101638.77
2023-05-09T04:44:17.526Z,101639.17
2023-05-09T04:46:48.118Z,101635.74
2023-05-09T04:49:18.946Z,101636.83
2023-05-09T04:51:49.770Z,101640.37
2023-05-09T04:54:21.423Z,101640.30
2023-05-09T04:57:17.370Z,101640.44
2023-05-09T04:59:49.772Z,101642.31
2023-05-09T05:02:21.339Z,101640.41
2023-05-09T05:04:54.254Z,101643.05
2023-05-09T05:07:28.553Z,101641.65
2023-05-09T05:09:59.488Z,101642.22
2023-05-09T05:12:30.100Z,101648.16
2023-05-09T05:15:02.872Z,101643.63
2023-05-09T05:17:33.585Z,101647.66
2023-05-09T05:20:06.683Z,101651.29
2023-05-09T05:22:37.604Z,101650.40
2023-05-09T05:25:09.424Z,101655.09
2023-05-09T05:27:39.956Z,101657.66
2023-05-09T05:30:11.513Z,101655.01
2023-05-09T05:32:42.216Z,101656.62
2023-05-09T05:35:13.176Z,101657.29
2023-05-09T05:37:47.038Z,101656.77
2023-05-09T05:40:19.311Z,101658.88
2023-05-09T05:42:50.148Z,101659.09
2023-05-09T05:45:22.960Z,101660.46
2023-05-09T05:47:56.607Z,101656.88
2023-05-09T05:50:27.419Z,101657.25
2023-05-09T05:52:58.086Z,101657.17
2023-05-09T05:55:29.094Z,101653.41
2023-05-09T05:58:00.945Z,101656.98
2023-05-09T06:00:31.866Z,101660.58
2023-05-09T06:03:02.577Z,101658.92
2023-05-09T06:05:33.580Z,101653.17
2023-05-09T06:08:04.452Z,101654.05
2023-05-09T06:10:35.021Z,101647.77
2023-05-09T06:13:05.862Z,101643.33
2023-05-09T06:15:38.713Z,101640.66
2023-05-09T06:18:09.362Z,101641.48
2023-05-09T06:20:40.242Z,101642.38
2023-05-09T06:23:11.044Z,101639.09
2023-05-09T06:25:41.924Z,101638.06
2023-05-09T06:28:12.546Z,101634.34
2023-05-09T06:30:43.296Z,101636.45
2023-05-09T06:33:14.108Z,101634.20
2023-05-09T06:35:45.124Z,101628.28
2023-05-09T06:38:15.808Z,101635.11
2023-05-09T06:40:46.597Z,101628.60
2023-05-09T06:43:19.788Z,101626.03
2023-05-09T06:45:52.519Z,101620.42
2023-05-09T06:48:25.300Z,101617.95
2023-05-09T06:50:55.905Z,101625.72
2023-05-09T06:53:26.557Z,101625.33
2023-05-09T06:55:57.153Z,101624.27
2023-05-09T06:58:27.933Z,101621.98
2023-05-09T07:00:58.632Z,101628.34
2023-05-09T07:03:29.250Z,101620.50
2023-05-09T07:06:00.094Z,101623.01
2023-05-09T07:08:31.062Z,101618.02
2023-05-09T07:11:01.739Z,101617.92
2023-05-09T07:13:32.380Z,101615.94
2023-05-09T07:16:03.254Z,101622.47
2023-05-09T07:18:34.035Z,101620.61
2023-05-09T07:21:05.006Z,101623.05
2023-05-09T07:23:35.593Z,101621.33
2023-05-09T07:26:06.413Z,101618.45
2023-05-09T07:28:37.170Z,101621.44
2023-05-09T07:31:09.483Z,101615.04
2023-05-09T07:33:40.102Z,101623.52
2023-05-09T07:36:13.222Z,101618.86
2023-05-09T07:38:44.061Z,101619.80
2023-05-09T07:41:14.743Z,101623.97
2023-05-09T07:43:45.362Z,101620.90
2023-05-09T07:46:16.025Z,101618.41
2023-05-09T07:48:46.743Z,101613.42
2023-05-09T07:51:17.493Z,101614.21
2023-05-09T07:53:48.029Z,101611.70
2023-05-09T07:56:18.569Z,101618.20
2023-05-09T07:58:49.416Z,101624.17
2023-05-09T08:01:19.986Z,101616.68
2023-05-09T08:03:50.793Z,101615.05
2023-05-09T08:06:21.697Z,101616.20
2023-05-09T08:08:52.370Z,101617.84
2023-05-09T08:11:23.041Z,101611.71
2023-05-09T08:13:55.084Z,101613.59
2023-05-09T08:16:30.257Z,101617.23
2023-05-09T08:19:00.998Z,101619.07
2023-05-09T08:21:32.162Z,101615.40
2023-05-09T08:24:06.174Z,101612.55
2023-05-09T08:26:36.647Z,101614.10
2023-05-09T08:29:07.478Z,101617.34
2023-05-09T08:31:38.206Z,101615.36
2023-05-09T08:34:11.060Z,101616.46
2023-05-09T08:36:42.370Z,101613.00
2023-05-09T08:39:12.933Z,101613.33
2023-05-09T08:41:43.961Z,101611.25
2023-05-09T08:44:14.804Z,101609.71
2023-05-09T08:46:47.330Z,101612.77
2023-05-09T08:49:20.915Z,101609.30
2023-05-09T08:51:51.645Z,101612.88
2023-05-09T08:54:22.959Z,101611.10
2023-05-09T08:56:53.595Z,101606.48
2023-05-09T08:59:24.670Z,101611.23
2023-05-09T09:01:56.021Z,101614.35
2023-05-09T09:04:26.931Z,101615.34
2023-05-09T09:06:57.466Z,101614.86
2023-05-09T09:09:29.016Z,101616.75
2023-05-09T09:11:59.805Z,101620.81
2023-05-09T09:14:32.881Z,101614.65
2023-05-09T09:17:07.486Z,101616.73
2023-05-09T09:19:37.950Z,101612.64
2023-05-09T09:22:09.447Z,101612.95
2023-05-09T09:24:41.998Z,101617.50
2023-05-09T09:27:15.205Z,101621.09
2023-05-09T09:29:48.286Z,101621.40
2023-05-09T09:32:23.480Z,101619.13
2023-05-09T09:34:56.847Z,101620.52
2023-05-09T09:37:32.779Z,101618.52
2023-05-09T09:40:06.889Z,101616.69
2023-05-09T09:42:49.721Z,101612.92
2023-05-09T09:45:25.364Z,101613.55
2023-05-09T09:47:56.563Z,101617.46
2023-05-09T09:50:27.342Z,101618.63
2023-05-09T09:53:00.030Z,101623.34
2023-05-09T09:55:32.676Z,101624.60
2023-05-09T09:58:04.442Z,101626.63
2023-05-09T10:00:37.382Z,101626.16
2023-05-09T10:03:13.944Z,101624.14
2023-05-09T10:05:45.099Z,101623.23
2023-05-09T10:08:15.926Z,101620.95
2023-05-09T10:10:48.780Z,101617.40
2023-05-09T10:13:24.276Z,101619.59
2023-05-09T10:15:55.442Z,101615.25
2023-05-09T10:18:27.251Z,101614.67
2023-05-09T10:21:01.148Z,101619.20
2023-05-09T10:23:32.702Z,101622.95
2023-05-09T10:26:09.854Z,101623.21
2023-05-09T10:28:44.478Z,101625.64
2023-05-09T10:35:07.491Z,101619.54
2023-05-09T10:37:39.466Z,101616.39
2023-05-09T10:40:15.512Z,101616.68
2023-05-09T10:42:46.841Z,101619.44
2023-05-09T10:45:20.892Z,101616.77
2023-05-09T10:47:53.504Z,101618.54
2023-05-09T10:50:25.492Z,101621.61
2023-05-09T10:53:11.608Z,101617.31
2023-05-09T10:55:51.839Z,101618.77
2023-05-09T10:58:23.897Z,101617.45
2023-05-09T11:00:57.295Z,101621.29
2023-05-09T11:03:29.928Z,101614.89
2023-05-09T11:06:01.488Z,101611.56
2023-05-09T11:08:33.340Z,101613.55
2023-05-09T11:11:07.530Z,101616.13
2023-05-09T11:13:40.506Z,101611.95
2023-05-09T11:16:14.575Z,101612.58
2023-05-09T11:18:54.939Z,101612.14
2023-05-09T11:21:26.335Z,101612.86
2023-05-09T11:23:58.128Z,101610.50
2023-05-09T11:34:45.270Z,101618.90
2023-05-09T11:37:17.630Z,101620.40
2023-05-09T11:40:01.081Z,101617.39
2023-05-09T11:42:31.973Z,101624.00
2023-05-09T11:45:04.884Z,101623.95
2023-05-09T11:47:35.790Z,101618.83
2023-05-09T11:50:08.499Z,101621.63
2023-05-09T11:52:39.321Z,101619.71
2023-05-09T11:55:12.684Z,101613.62
2023-05-09T11:57:44.355Z,101613.87
2023-05-09T12:00:16.082Z,101610.14
2023-05-09T12:02:47.821Z,101604.83
2023-05-09T12:05:19.004Z,101604.19
2023-05-09T12:07:49.707Z,101592.17
2023-05-09T12:10:22.913Z,101594.00
2023-05-09T12:12:55.668Z,101590.84
2023-05-09T12:15:27.381Z,101584.89
2023-05-09T12:18:05.369Z,101582.36
2023-05-09T12:20:43.108Z,101580.91
2023-05-09T12:23:14.667Z,101581.42
2023-05-09T12:25:50.299Z,101583.98
2023-05-09T12:28:21.286Z,101577.40
2023-05-09T12:30:51.948Z,101571.80
2023-05-09T12:33:22.594Z,101566.39
2023-05-09T12:36:03.217Z,101558.51
2023-05-09T12:38:34.661Z,101556.42
2023-05-09T12:41:06.652Z,101550.89
2023-05-09T12:43:38.163Z,101547.61
2023-05-09T12:46:08.863Z,101547.20
2023-05-09T12:48:39.846Z,101539.96
2023-05-09T12:51:10.691Z,101538.23
2023-05-09T12:53:42.285Z,101540.73
2023-05-09T12:56:16.704Z,101533.39
2023-05-09T12:58:51.264Z,101537.05
2023-05-09T13:01:22.411Z,101538.21
2023-05-09T13:04:01.579Z,101534.80
2023-05-09T13:06:32.405Z,101532.33
2023-05-09T13:09:37.848Z,101526.94
2023-05-09T13:12:10.095Z,101513.86
2023-05-09T13:14:41.725Z,101514.49
2023-05-09T13:17:12.586Z,101508.61
2023-05-09T13:19:43.216Z,101511.52
2023-05-09T13:22:13.867Z,101504.15
2023-05-09T13:24:44.758Z,101500.36
2023-05-09T13:27:15.508Z,101499.75
2023-05-09T13:29:46.237Z,101495.02
2023-05-09T13:32:16.880Z,101493.45
2023-05-09T13:34:47.778Z,101492.43
2023-05-09T13:37:18.484Z,101495.64
2023-05-09T13:39:49.234Z,101493.05
2023-05-09T13:42:20.215Z,101487.61
2023-05-09T13:44:50.900Z,101481.34
2023-05-09T13:47:21.965Z,101486.52
2023-05-09T13:49:53.096Z,101491.60
2023-05-09T13:52:24.297Z,101496.95
2023-05-09T13:54:55.231Z,101498.22
2023-05-09T13:57:25.928Z,101490.83
2023-05-09T13:59:56.655Z,101483.34
2023-05-09T14:02:27.469Z,101492.57
2023-05-09T14:04:59.088Z,101495.93
2023-05-09T14:07:29.809Z,101497.39
2023-05-09T14:10:10.925Z,101496.53
2023-05-09T14:12:44.578Z,101498.10
2023-05-09T14:15:16.443Z,101496.48
2023-05-09T14:17:47.317Z,101493.88
2023-05-09T14:20:18.266Z,101494.80
2023-05-09T14:22:48.858Z,101488.42
2023-05-09T14:25:19.733Z,101492.13
2023-05-09T14:27:50.382Z,101497.42
2023-05-09T14:30:21.174Z,101493.58
2023-05-09T14:32:52.107Z,101494.89
2023-05-09T14:35:23.295Z,101495.91
2023-05-09T14:37:53.915Z,101496.30
2023-05-09T14:40:24.668Z,101500.63
2023-05-09T14:42:55.421Z,101499.92
2023-05-09T14:45:26.550Z,101499.58
2023-05-09T14:47:57.300Z,101498.91
2023-05-09T14:50:28.104Z,101495.16
2023-05-09T14:52:59.966Z,101499.13
2023-05-09T14:55:31.481Z,101491.77
2023-05-09T14:58:02.700Z,101491.06
2023-05-09T15:00:34.263Z,101489.98
2023-05-09T15:03:05.052Z,101495.00
2023-05-09T15:05:35.869Z,101501.89
2023-05-09T15:08:06.967Z,101505.96
2023-05-09T15:10:37.690Z,101515.64
2023-05-09T15:13:08.325Z,101515.64
2023-05-09T15:15:40.715Z,101519.83
2023-05-09T15:18:13.418Z,101525.98
2023-05-09T15:20:44.090Z,101527.65
2023-05-09T15:23:14.889Z,101524.77
2023-05-09T15:25:46.430Z,101527.15
2023-05-09T15:28:17.073Z,101526.06
2023-05-09T15:30:48.540Z,101526.11
2023-05-09T15:33:19.432Z,101529.69
2023-05-09T15:35:50.262Z,101527.27
2023-05-09T15:38:20.967Z,101526.70
2023-05-09T15:40:51.948Z,101528.65
2023-05-09T15:43:22.863Z,101527.98
2023-05-09T15:46:11.124Z,101528.75
2023-05-09T15:48:41.888Z,101532.91
2023-05-09T15:51:13.994Z,101529.98
2023-05-09T15:53:44.961Z,101528.25
2023-05-09T15:56:15.787Z,101533.15
2023-05-09T15:58:46.505Z,101534.83
2023-05-09T16:01:17.438Z,101534.52
2023-05-09T16:03:48.548Z,101534.88
2023-05-09T16:06:19.509Z,101531.70
2023-05-09T16:08:50.344Z,101529.92
2023-05-09T16:11:21.806Z,101529.73
2023-05-09T16:13:52.671Z,101527.17
2023-05-09T16:16:23.667Z,101532.23
2023-05-09T16:18:54.460Z,101530.75
2023-05-09T16:21:29.282Z,101529.45
2023-05-09T16:24:01.492Z,101533.16
2023-05-09T16:26:32.523Z,101531.97
2023-05-09T16:29:03.843Z,101533.89
2023-05-09T16:31:35.670Z,101532.44
2023-05-09T16:34:07.345Z,101538.33
2023-05-09T16:36:38.431Z,101537.92
2023-05-09T16:39:08.943Z,101536.56
2023-05-09T16:41:39.664Z,101538.55
2023-05-09T16:44:10.371Z,101534.04
2023-05-09T16:46:43.975Z,101536.45
2023-05-09T16:49:37.864Z,101538.19
2023-05-09T16:52:09.732Z,101537.08
2023-05-09T16:55:00.901Z,101540.32
2023-05-09T16:57:31.914Z,101544.27
2023-05-09T17:00:02.620Z,101543.14
2023-05-09T17:02:33.677Z,101547.73
2023-05-09T17:05:04.980Z,101548.42
2023-05-09T17:07:35.669Z,101549.55
2023-05-09T17:10:06.762Z,101553.23
2023-05-09T17:12:38.991Z,101555.30
2023-05-09T17:15:11.837Z,101559.14
2023-05-09T17:17:42.706Z,101562.55
2023-05-09T17:20:14.001Z,101564.11
2023-05-09T17:22:50.319Z,101561.33
2023-05-09T17:25:21.465Z,101565.59
2023-05-09T17:27:55.157Z,101566.28
2023-05-09T17:30:31.432Z,101566.34
2023-05-09T17:33:07.186Z,101565.71
2023-05-09T17:35:39.638Z,101563.59
2023-05-09T17:38:16.100Z,101563.09
2023-05-09T17:40:51.159Z,101564.04
2023-05-09T17:43:26.822Z,101566.73
2023-05-09T17:45:57.690Z,101563.69
2023-05-09T17:48:38.847Z,101561.13
2023-05-09T17:51:12.536Z,101560.73
2023-05-09T17:53:47.107Z,101563.21
2023-05-09T17:56:18.712Z,101563.08
2023-05-09T17:58:53.263Z,101564.13
2023-05-09T18:01:26.800Z,101567.33
2023-05-09T18:03:57.907Z,101572.56
2023-05-09T18:06:29.058Z,101577.55
2023-05-09T18:08:59.833Z,101579.49
2023-05-09T18:11:30.761Z,101585.04
2023-05-09T18:14:01.615Z,101586.39
2023-05-09T18:16:33.788Z,101586.15
2023-05-09T18:19:04.816Z,101588.45
2023-05-09T18:21:39.476Z,101586.09
2023-05-09T18:24:10.678Z,101589.77
2023-05-09T18:26:45.089Z,101592.25
2023-05-09T18:29:18.002Z,101594.14
2023-05-09T18:31:49.143Z,101592.80
2023-05-09T18:34:20.244Z,101593.74
2023-05-09T18:36:52.976Z,101595.10
2023-05-09T18:39:23.850Z,101593.34
2023-05-09T18:41:54.837Z,101597.66
2023-05-09T18:44:25.481Z,101597.30
2023-05-09T18:47:00.599Z,101604.02
2023-05-09T18:49:31.713Z,101604.10
2023-05-09T18:52:02.619Z,101602.17
2023-05-09T18:54:35.785Z,101599.84
2023-05-09T18:57:06.728Z,101598.88
2023-05-09T18:59:39.727Z,101598.81
2023-05-09T19:02:10.313Z,101594.73
2023-05-09T19:04:40.970Z,101597.08
2023-05-09T19:07:15.043Z,101598.51
2023-05-09T19:09:47.818Z,101603.52
2023-05-09T19:12:22.496Z,101602.61
2023-05-09T19:14:57.556Z,101602.13
2023-05-09T19:17:28.267Z,101605.02
2023-05-09T19:19:59.539Z,101602.31
2023-05-09T19:22:30.252Z,101603.73
2023-05-09T19:25:02.575Z,101602.50
2023-05-09T19:27:33.428Z,101609.50
2023-05-09T19:30:04.561Z,101613.38
2023-05-09T19:32:39.545Z,101610.62
2023-05-09T19:35:12.855Z,101612.84
2023-05-09T19:37:46.549Z,101610.19
2023-05-09T19:40:17.574Z,101606.26
2023-05-09T19:42:48.409Z,101602.86
2023-05-09T19:45:19.104Z,101601.73
2023-05-09T19:47:50.021Z,101600.50
2023-05-09T19:50:21.116Z,101596.73
2023-05-09T19:52:53.174Z,101595.89
2023-05-09T19:55:23.962Z,101593.71
2023-05-09T19:57:55.825Z,101591.36
2023-05-09T20:00:26.970Z,101592.11
2023-05-09T20:02:57.984Z,101589.60
2023-05-09T20:05:28.720Z,101590.06
2023-05-09T20:07:59.303Z,101592.77
2023-05-09T20:10:30.990Z,101590.89
2023-05-09T20:13:02.739Z,101590.08
2023-05-09T20:15:33.569Z,101590.35
2023-05-09T20:18:08.489Z,101587.27
2023-05-09T20:20:39.483Z,101588.73
2023-05-09T20:23:12.851Z,101591.39
2023-05-09T20:25:43.681Z,101592.73
2023-05-09T20:28:22.310Z,101587.67
2023-05-09T20:30:53.090Z,101588.82
2023-05-09T20:33:23.719Z,101584.45
2023-05-09T20:35:54.508Z,101588.30
2023-05-09T20:38:25.238Z,101588.23
2023-05-09T20:40:55.979Z,101587.23
2023-05-09T20:43:26.701Z,101589.35
2023-05-09T20:45:57.533Z,101588.73
2023-05-09T20:48:28.271Z,101588.69
2023-05-09T20:50:58.984Z,101585.48
2023-05-09T20:53:32.570Z,101585.80
2023-05-09T20:56:03.396Z,101583.35
2023-05-09T20:58:35.235Z,101583.98
2023-05-09T21:01:06.100Z,101580.95
2023-05-09T21:03:39.521Z,101582.49
2023-05-09T21:06:11.160Z,101581.80
2023-05-09T21:08:42.146Z,101582.09
2023-05-09T21:11:13.317Z,101580.48
2023-05-09T21:13:44.142Z,101577.95
2023-05-09T21:16:14.773Z,101573.83
2023-05-09T21:18:45.635Z,101572.16
2023-05-09T21:21:16.507Z,101575.12
2023-05-09T21:23:47.413Z,101569.70
2023-05-09T21:26:17.990Z,101562.64
2023-05-09T21:28:48.622Z,101562.86
2023-05-09T21:31:19.479Z,101560.69
2023-05-09T21:33:50.115Z,101560.75
2023-05-09T21:36:20.948Z,101560.58
2023-05-09T21:38:51.910Z,101562.25
2023-05-09T21:41:23.174Z,101557.42
2023-05-09T21:43:54.602Z,101555.13
2023-05-09T21:46:25.477Z,101553.11
2023-05-09T21:48:56.262Z,101544.45
2023-05-09T21:51:27.021Z,101544.06
2023-05-09T21:53:57.654Z,101542.00
2023-05-09T21:56:28.327Z,101538.71
2023-05-09T21:58:59.063Z,101536.37
2023-05-09T22:01:29.845Z,101535.10
2023-05-09T22:04:00.782Z,101532.77
2023-05-09T22:06:31.739Z,101530.35
2023-05-09T22:09:02.487Z,101529.38
2023-05-09T22:11:33.885Z,101532.44
2023-05-09T22:14:04.659Z,101529.30
2023-05-09T22:16:35.477Z,101533.81
2023-05-09T22:19:06.204Z,101536.57
2023-05-09T22:21:36.923Z,101534.46
2023-05-09T22:24:08.715Z,101536.34
2023-05-09T22:26:39.476Z,101538.11
2023-05-09T22:29:10.107Z,101531.59
2023-05-09T22:31:41.091Z,101531.23
2023-05-09T22:34:11.888Z,101532.05
2023-05-09T22:36:42.573Z,101533.52
2023-05-09T22:39:14.280Z,101526.84
2023-05-09T22:41:45.020Z,101523.27
2023-05-09T22:44:15.735Z,101521.02
2023-05-09T22:46:46.471Z,101522.42
2023-05-09T22:49:17.593Z,101518.94
2023-05-09T22:51:48.247Z,101518.41
2023-05-09T22:54:21.437Z,101512.27
2023-05-09T22:56:52.321Z,101507.18
2023-05-09T22:59:23.324Z,101509.80
2023-05-09T23:01:54.265Z,101505.14
2023-05-09T23:04:25.158Z,101506.20
2023-05-09T23:06:55.864Z,101505.67
2023-05-09T23:09:26.980Z,101497.25
2023-05-09T23:11:57.902Z,101493.58
2023-05-09T23:14:28.601Z,101498.11
2023-05-09T23:16:59.218Z,101492.31
2023-05-09T23:19:30.038Z,101490.79
2023-05-09T23:22:00.590Z,101486.98
2023-05-09T23:24:31.441Z,101485.94
2023-05-09T23:27:04.818Z,101482.60
2023-05-09T23:29:35.667Z,101480.04
2023-05-09T23:32:06.515Z,101477.19
2023-05-09T23:34:37.344Z,101478.33
2023-05-09T23:37:08.444Z,101477.62
2023-05-09T23:39:39.204Z,101476.13
2023-05-09T23:42:10.002Z,101473.48
2023-05-09T23:44:40.811Z,101473.58
2023-05-09T23:47:11.508Z,101473.31
2023-05-09T23:49:42.521Z,101467.77
2023-05-09T23:52:13.523Z,101469.15
2023-05-09T23:54:44.256Z,101468.29
2023-05-09T23:57:14.923Z,101472.31
2023-05-09T23:59:45.768Z,101473.40
